Главная страница
METAR-TAF:

METAR-TAF

Аэропорты :

Люблин, Польша

широта: 51-13-55N, долгота: 22-41-25E, высота над уровнем моря: 203 м

Текущие метеонаблюдения

Эта сводка был подготовлена 8 минут назад, в 00:00 UTC
Ветер 7 Узел от северный
Температура 14°C
Влажность 77%
Давление 1022 hPa
Видимость 10 км и более
Нет облачности ниже 1500 м, и нет кучево-дождевой облачности

METAR: EPLB 240000Z 01007KT CAVOK 14/10 Q1022

Время: 02:08 (00:08 UTC)

Прогноз

Эта сводка был подготовлена 38 минут назад, в 23:30 UTC
Прогноз действительный с 24-го 00 UTC до 24-го 09 UTC
Ветер 7 Узел от северо-северо-восточный
Видимость 10 км и более
Нет облачности ниже 1500 м, и нет кучево-дождевой облачности

TAF: EPLB 232330Z 2400/2409 03007KT CAVOK

Метеонаблюдения и прогнозы для более 4000 аэропортов (сводки METAR и TAF).

Имеющиеся станции представлены на карте желтыми и красными точками.

Чтобы увидеть название станции, наведите на нее мышь.

Затем щелкните, чтобы увидеть метеонаблюдения и метеопрогнозы.

Управление картой: чтобы увеличить масштаб, щелкните зеленые кнопки с черным крестиком; чтобы уменьшить масштаб, щелкните зеленую кнопку с тире; для просмотра соседних карт щелкайте зеленые стрелки.


METAR-TAF: